Time;durP1;ratioP1;P1;durP2;ratioP2;P2;SDS_P1;SDS_P2;PMS_P1;PMS_P2;Temp;Humidity;BMP_temperature;BMP_pressure;BME280_temperature;BME280_humidity;BME280_pressure;Samples;Min_cycle;Max_cycle;Signal;HPM_P1;HPM_P2
2023/12/02 00:00:22;;;;;;;88.00;42.40;;;;;;;4.38;81.51;98407.14;109542;1252;74603;-66
2023/12/02 00:02:50;;;;;;;74.50;40.50;;;;;;;4.46;81.32;98413.58;109550;1253;68849;-64
2023/12/02 00:05:17;;;;;;;66.20;36.10;;;;;;;4.46;81.54;98421.14;109519;1253;71370;-66
2023/12/02 00:07:45;;;;;;;65.80;33.70;;;;;;;4.42;81.70;98426.59;109609;1253;59631;-61
2023/12/02 00:10:12;;;;;;;72.50;38.10;;;;;;;4.40;81.71;98428.41;109527;1251;58902;-65
2023/12/02 00:12:40;;;;;;;74.90;36.30;;;;;;;4.45;81.60;98429.77;109266;1253;74692;-65
2023/12/02 00:15:08;;;;;;;80.80;42.10;;;;;;;4.42;81.86;98432.27;109522;1252;67108;-65
2023/12/02 00:17:36;;;;;;;95.70;49.80;;;;;;;4.45;82.08;98432.58;109298;1253;71406;-62
2023/12/02 00:20:03;;;;;;;70.70;41.40;;;;;;;4.48;81.26;98436.72;109528;1254;59582;-62
2023/12/02 00:22:31;;;;;;;69.20;37.00;;;;;;;4.52;80.97;98440.77;109591;1253;60011;-63
2023/12/02 00:24:58;;;;;;;67.30;37.80;;;;;;;4.59;80.81;98441.67;109558;1252;72662;-61
2023/12/02 00:27:26;;;;;;;71.20;39.80;;;;;;;4.56;80.93;98443.54;109568;1251;67151;-61
2023/12/02 00:29:54;;;;;;;68.30;38.10;;;;;;;4.58;81.26;98447.09;109511;1253;72719;-62
2023/12/02 00:32:21;;;;;;;74.60;35.40;;;;;;;4.61;81.32;98443.79;109538;1253;58989;-62
2023/12/02 00:34:57;;;;;;;63.10;34.80;;;;;;;4.64;80.85;98441.88;109512;1253;58973;-64
2023/12/02 00:37:25;;;;;;;70.40;39.10;;;;;;;4.62;80.50;98440.66;109565;1253;74593;-65
2023/12/02 00:39:52;;;;;;;65.40;35.90;;;;;;;4.59;80.49;98438.39;109161;1252;67213;-64
2023/12/02 00:42:20;;;;;;;61.80;35.90;;;;;;;4.58;80.59;98438.63;109557;1251;72695;-63
2023/12/02 00:44:47;;;;;;;61.10;33.70;;;;;;;4.58;80.33;98436.18;109299;1250;59575;-64
2023/12/02 00:47:15;;;;;;;52.90;29.60;;;;;;;4.56;80.44;98437.38;109557;1253;60028;-65
2023/12/02 00:49:42;;;;;;;60.40;32.60;;;;;;;4.59;80.27;98431.09;109552;1251;73375;-63
2023/12/02 00:52:10;;;;;;;61.60;33.00;;;;;;;4.63;80.18;98434.98;109548;1252;67133;-67
2023/12/02 00:54:37;;;;;;;54.60;32.50;;;;;;;4.60;80.08;98429.42;109279;1252;71086;-65
2023/12/02 00:57:05;;;;;;;54.50;28.90;;;;;;;4.58;80.38;98419.55;109548;1253;60846;-61
2023/12/02 00:59:32;;;;;;;59.80;33.70;;;;;;;4.57;80.31;98416.30;109375;1251;58975;-62
2023/12/02 01:02:00;;;;;;;62.10;32.50;;;;;;;4.58;80.29;98410.15;109542;1253;74594;-61
2023/12/02 01:04:27;;;;;;;52.90;28.90;;;;;;;4.68;80.25;98411.57;109557;1252;68671;-63
2023/12/02 01:06:55;;;;;;;63.00;32.80;;;;;;;4.70;80.07;98410.81;109520;1252;72488;-62
2023/12/02 01:09:23;;;;;;;61.90;32.80;;;;;;;4.70;80.43;98405.00;109504;1251;59940;-62
2023/12/02 01:11:50;;;;;;;57.90;31.50;;;;;;;4.75;80.67;98408.69;109516;1253;60028;-62
2023/12/02 01:14:18;;;;;;;73.10;38.00;;;;;;;4.76;80.51;98414.14;109584;1253;74676;-64
2023/12/02 01:16:45;;;;;;;78.20;37.40;;;;;;;4.73;80.73;98404.57;109527;1252;67118;-64
2023/12/02 01:19:12;;;;;;;74.90;39.30;;;;;;;4.80;80.16;98417.02;109568;1253;71552;-61
2023/12/02 01:21:40;;;;;;;90.50;44.20;;;;;;;4.74;80.21;98413.16;109566;1252;60163;-61
2023/12/02 01:24:07;;;;;;;81.20;40.50;;;;;;;4.88;79.88;98415.48;109513;1252;59054;-62
2023/12/02 01:26:35;;;;;;;94.00;44.50;;;;;;;4.81;79.68;98423.09;109577;1253;73368;-61
2023/12/02 01:29:03;;;;;;;91.10;40.90;;;;;;;4.68;79.96;98415.40;109491;1252;68736;-64
2023/12/02 01:31:30;;;;;;;79.80;39.60;;;;;;;4.72;80.13;98409.61;109474;1254;72726;-65
2023/12/02 01:33:57;;;;;;;75.90;38.50;;;;;;;4.66;80.01;98411.07;109495;1252;60135;-64
2023/12/02 01:36:25;;;;;;;84.40;40.10;;;;;;;4.68;80.21;98413.48;109531;1252;59057;-63
2023/12/02 01:38:53;;;;;;;77.90;36.80;;;;;;;4.71;80.74;98402.29;109492;1253;73389;-64
2023/12/02 01:41:20;;;;;;;76.40;37.80;;;;;;;4.81;80.50;98392.09;109461;1252;66663;-61
2023/12/02 01:43:48;;;;;;;79.10;37.50;;;;;;;4.87;79.80;98396.48;109517;1253;72793;-62
2023/12/02 01:46:15;;;;;;;76.30;39.00;;;;;;;4.93;79.60;98405.12;109669;1253;59601;-65
2023/12/02 01:48:43;;;;;;;78.50;37.90;;;;;;;4.98;79.79;98412.96;109613;1252;60084;-65
2023/12/02 01:51:10;;;;;;;67.90;37.30;;;;;;;4.99;79.15;98421.90;109552;1252;74700;-61
2023/12/02 01:53:41;;;;;;;76.20;39.10;;;;;;;4.95;79.48;98422.48;109555;1253;66647;-61
2023/12/02 01:56:09;;;;;;;79.80;39.80;;;;;;;4.95;79.25;98416.33;109578;1252;72684;-62
2023/12/02 01:58:36;;;;;;;84.50;42.10;;;;;;;4.98;79.50;98412.95;109263;1252;60957;-63
2023/12/02 02:01:04;;;;;;;93.20;44.80;;;;;;;5.01;79.35;98411.40;109612;1253;58853;-61
2023/12/02 02:03:32;;;;;;;93.30;47.80;;;;;;;5.02;79.32;98419.13;109645;1253;73412;-61
2023/12/02 02:06:00;;;;;;;86.70;43.20;;;;;;;5.04;79.65;98415.39;109562;1253;67090;-63
2023/12/02 02:08:27;;;;;;;77.60;40.60;;;;;;;5.05;79.44;98414.81;109153;1252;71940;-61
2023/12/02 02:10:58;;;;;;;76.00;38.60;;;;;;;5.02;79.77;98413.48;109652;1253;59711;-61
2023/12/02 02:13:26;;;;;;;80.00;43.60;;;;;;;4.98;79.49;98414.67;109595;1252;60106;-64
2023/12/02 02:15:54;;;;;;;78.60;44.50;;;;;;;4.97;79.71;98410.18;109580;1252;74738;-61
2023/12/02 02:18:21;;;;;;;73.70;42.10;;;;;;;5.02;79.63;98404.08;109629;1253;67114;-62
2023/12/02 02:20:50;;;;;;;71.60;39.00;;;;;;;5.01;79.54;98408.74;109626;1251;72518;-63
2023/12/02 02:23:22;;;;;;;73.60;39.30;;;;;;;5.01;79.41;98404.81;109557;1253;60841;-63
2023/12/02 02:25:53;;;;;;;68.60;39.20;;;;;;;4.99;79.44;98405.16;109601;1252;58896;-60
2023/12/02 02:28:25;;;;;;;67.80;37.00;;;;;;;4.98;79.38;98401.00;109599;1253;73495;-61
2023/12/02 02:30:53;;;;;;;69.70;35.30;;;;;;;4.84;79.40;98403.58;109609;1253;68425;-62
2023/12/02 02:33:20;;;;;;;64.80;35.30;;;;;;;4.81;79.86;98406.50;109585;1252;71058;-61
2023/12/02 02:35:48;;;;;;;69.50;35.40;;;;;;;4.87;79.85;98406.95;109379;1253;59630;-64
2023/12/02 02:38:15;;;;;;;71.10;37.80;;;;;;;4.86;79.72;98410.52;109625;1252;58939;-65
2023/12/02 02:40:44;;;;;;;65.90;37.00;;;;;;;4.84;79.67;98413.89;109624;1254;74650;-64
2023/12/02 02:43:12;;;;;;;63.00;36.90;;;;;;;4.78;79.92;98410.55;109616;1253;68312;-64
2023/12/02 02:45:39;;;;;;;69.10;35.80;;;;;;;4.74;79.90;98417.50;109555;1252;72648;-63
2023/12/02 02:48:07;;;;;;;65.30;36.00;;;;;;;4.74;79.71;98420.38;109596;1252;60903;-64
2023/12/02 02:50:35;;;;;;;68.60;36.80;;;;;;;4.78;80.14;98426.98;109611;1252;60088;-62
2023/12/02 02:53:02;;;;;;;69.90;36.90;;;;;;;4.88;79.91;98434.30;109602;1251;74610;-63
2023/12/02 02:55:30;;;;;;;66.40;36.50;;;;;;;4.93;80.04;98430.88;109532;1251;67444;-61
2023/12/02 02:57:57;;;;;;;74.00;38.40;;;;;;;4.94;79.56;98419.45;109481;1251;72622;-62
2023/12/02 03:00:25;;;;;;;75.80;38.70;;;;;;;4.90;79.17;98419.66;109254;1251;59568;-64
2023/12/02 03:02:52;;;;;;;72.00;38.60;;;;;;;4.86;79.44;98421.46;109574;1251;59970;-61
2023/12/02 03:05:20;;;;;;;61.50;31.60;;;;;;;4.84;79.64;98424.35;109604;1251;73355;-63
2023/12/02 03:07:51;;;;;;;79.50;40.30;;;;;;;4.89;79.67;98426.36;109562;1251;68470;-64
2023/12/02 03:10:18;;;;;;;66.50;38.00;;;;;;;4.92;79.51;98427.92;109584;1251;72464;-62
2023/12/02 03:12:46;;;;;;;77.50;40.60;;;;;;;4.93;79.08;98432.14;109597;1251;60840;-64
2023/12/02 03:15:14;;;;;;;77.40;39.90;;;;;;;4.86;79.41;98424.60;109600;1251;59968;-63
2023/12/02 03:17:41;;;;;;;79.60;41.30;;;;;;;4.83;79.63;98425.83;109561;1251;74599;-65
2023/12/02 03:20:10;;;;;;;72.30;37.80;;;;;;;4.83;79.59;98432.26;109589;1251;68515;-65
2023/12/02 03:22:37;;;;;;;84.30;41.10;;;;;;;4.83;79.77;98441.09;109413;1251;71251;-61
2023/12/02 03:25:06;;;;;;;82.80;42.00;;;;;;;4.86;79.81;98439.28;109607;1251;59572;-63
2023/12/02 03:27:34;;;;;;;76.50;41.50;;;;;;;4.80;79.86;98436.74;109575;1251;59129;-62
2023/12/02 03:30:02;;;;;;;82.30;42.30;;;;;;;4.79;79.97;98432.36;109341;1251;74603;-66
2023/12/02 03:32:29;;;;;;;85.80;42.80;;;;;;;4.75;80.01;98429.01;109545;1251;67254;-64
2023/12/02 03:34:58;;;;;;;80.50;44.30;;;;;;;4.73;79.88;98431.23;109609;1251;72891;-63
2023/12/02 03:37:26;;;;;;;81.70;44.50;;;;;;;4.72;80.29;98427.48;109558;1252;59653;-63
2023/12/02 03:39:54;;;;;;;75.70;39.60;;;;;;;4.73;80.45;98420.80;109596;1251;59980;-63
2023/12/02 03:42:21;;;;;;;82.80;43.40;;;;;;;4.74;80.21;98418.04;109549;1256;74671;-62
2023/12/02 03:44:49;;;;;;;79.80;42.00;;;;;;;4.73;80.37;98423.98;108813;1251;1002177;-63
2023/12/02 03:47:16;;;;;;;82.50;43.30;;;;;;;4.70;80.50;98430.16;109582;1254;71377;-63
2023/12/02 03:49:44;;;;;;;77.50;37.70;;;;;;;4.67;80.73;98426.03;109565;1251;60919;-62
2023/12/02 03:52:11;;;;;;;72.70;40.80;;;;;;;4.70;80.45;98421.70;109586;1251;58908;-64
2023/12/02 03:54:39;;;;;;;70.90;38.30;;;;;;;4.72;80.23;98423.33;109648;1251;73345;-65
2023/12/02 03:57:06;;;;;;;78.30;38.60;;;;;;;4.70;80.38;98421.07;109292;1251;68463;-64
2023/12/02 03:59:35;;;;;;;77.40;42.00;;;;;;;4.68;80.28;98417.90;109570;1251;73083;-61
2023/12/02 04:02:02;;;;;;;80.30;42.60;;;;;;;4.69;80.42;98419.14;109611;1251;61005;-63
2023/12/02 04:04:30;;;;;;;70.50;38.50;;;;;;;4.72;80.32;98412.77;109567;1251;59969;-63
2023/12/02 04:06:57;;;;;;;78.80;42.00;;;;;;;4.68;80.16;98413.55;109588;1251;74626;-67
2023/12/02 04:09:25;;;;;;;81.80;47.30;;;;;;;4.64;80.39;98411.73;109532;1251;68759;-61
2023/12/02 04:11:53;;;;;;;80.80;44.10;;;;;;;4.61;80.61;98413.16;109531;1251;72762;-63
2023/12/02 04:14:20;;;;;;;74.30;39.90;;;;;;;4.53;80.93;98414.75;109590;1251;60829;-65
2023/12/02 04:16:47;;;;;;;85.40;41.70;;;;;;;4.50;80.93;98414.45;109572;1251;59015;-62
2023/12/02 04:19:15;;;;;;;85.20;44.30;;;;;;;4.47;81.04;98412.60;109630;1251;73359;-63
2023/12/02 04:21:44;;;;;;;74.90;38.20;;;;;;;4.44;81.13;98418.64;109588;1251;68652;-65
2023/12/02 04:24:11;;;;;;;;;;;;;;;4.45;81.12;98421.15;109238;1253;72668;-63
2023/12/02 04:26:39;;;;;;;72.50;36.20;;;;;;;4.42;81.29;98424.57;109586;1251;59754;-64
2023/12/02 04:29:06;;;;;;;73.70;39.70;;;;;;;4.40;81.35;98423.52;109262;1255;58934;-61
2023/12/02 04:31:34;;;;;;;75.80;42.80;;;;;;;4.31;81.76;98419.77;109600;1251;73339;-62
2023/12/02 04:34:01;;;;;;;75.30;42.30;;;;;;;4.28;81.99;98420.09;109445;1250;67121;-62
2023/12/02 04:36:30;;;;;;;78.80;42.50;;;;;;;4.28;82.23;98415.63;109542;1251;72684;-64
2023/12/02 04:38:58;;;;;;;80.40;44.60;;;;;;;4.28;82.32;98418.91;109604;1254;60846;-63
2023/12/02 04:41:25;;;;;;;98.20;53.30;;;;;;;4.27;82.53;98422.61;109509;1252;59985;-64
2023/12/02 04:43:53;;;;;;;120.90;62.20;;;;;;;4.31;82.45;98424.39;109484;1250;74704;-63
2023/12/02 04:46:20;;;;;;;85.20;46.10;;;;;;;4.32;82.64;98425.79;109619;1252;68682;-65
2023/12/02 04:48:48;;;;;;;107.20;55.00;;;;;;;4.33;82.32;98422.20;109576;1251;72658;-64
2023/12/02 04:51:15;;;;;;;76.70;43.70;;;;;;;4.28;82.30;98417.11;109580;1253;60857;-63
2023/12/02 04:53:43;;;;;;;81.80;45.30;;;;;;;4.10;83.43;98411.81;109575;1253;59116;-64
2023/12/02 04:56:11;;;;;;;80.20;44.10;;;;;;;4.04;83.81;98414.38;109555;1252;74558;-61
2023/12/02 04:58:39;;;;;;;81.40;42.60;;;;;;;4.05;83.99;98417.14;109543;1252;69207;-64
2023/12/02 05:01:06;;;;;;;111.80;57.50;;;;;;;4.16;83.52;98415.64;109584;1253;72320;-62
2023/12/02 05:03:34;;;;;;;162.70;73.20;;;;;;;4.19;83.59;98417.02;109596;1253;60812;-61
2023/12/02 05:06:01;;;;;;;197.40;83.60;;;;;;;4.21;83.29;98426.39;109527;1254;59987;-64
2023/12/02 05:08:29;;;;;;;117.90;57.30;;;;;;;4.29;82.99;98434.40;109558;1253;74640;-64
2023/12/02 05:10:57;;;;;;;108.50;53.00;;;;;;;4.31;82.98;98429.80;109538;1253;67205;-62
2023/12/02 05:13:24;;;;;;;88.80;47.50;;;;;;;4.28;83.05;98421.78;109580;1253;72658;-62
2023/12/02 05:15:52;;;;;;;77.50;40.00;;;;;;;4.17;83.61;98419.36;109606;1252;60438;-63
2023/12/02 05:18:19;;;;;;;77.50;41.40;;;;;;;4.03;84.20;98414.13;109598;1253;58831;-63
2023/12/02 05:20:47;;;;;;;64.50;33.40;;;;;;;4.06;84.25;98408.04;109627;1254;73410;-64
2023/12/02 05:23:15;;;;;;;61.10;34.50;;;;;;;4.04;84.47;98410.55;109617;1251;67085;-61
2023/12/02 05:25:42;;;;;;;67.10;35.80;;;;;;;4.07;84.53;98418.98;109583;1253;72604;-62
2023/12/02 05:28:10;;;;;;;69.10;39.60;;;;;;;4.04;84.51;98424.72;109554;1253;59808;-63
2023/12/02 05:30:38;;;;;;;64.60;36.40;;;;;;;4.05;84.80;98425.48;109352;1253;60001;-64
2023/12/02 05:33:06;;;;;;;;;;;;;;;4.04;84.80;98418.52;109643;1253;73360;-61
2023/12/02 05:35:34;;;;;;;52.90;30.10;;;;;;;4.07;84.70;98417.66;109551;1253;68368;-61
2023/12/02 05:38:01;;;;;;;59.20;35.80;;;;;;;4.01;85.00;98411.46;109535;1253;72650;-62
2023/12/02 05:40:28;;;;;;;62.90;37.60;;;;;;;4.12;84.80;98407.60;109658;1253;60881;-61
2023/12/02 05:42:56;;;;;;;64.80;35.50;;;;;;;4.20;84.36;98410.39;109548;1253;59049;-60
2023/12/02 05:45:24;;;;;;;60.10;34.30;;;;;;;4.21;84.17;98409.83;109510;1252;74608;-64
2023/12/02 05:47:51;;;;;;;53.40;29.00;;;;;;;4.21;84.01;98410.46;109626;1252;67581;-62
2023/12/02 05:50:19;;;;;;;57.60;34.30;;;;;;;4.10;84.70;98414.21;109551;1252;72432;-61
2023/12/02 05:52:46;;;;;;;56.90;32.40;;;;;;;4.17;84.73;98417.30;109164;1253;60879;-64
2023/12/02 05:55:14;;;;;;;55.90;32.70;;;;;;;4.20;84.58;98415.28;109610;1252;59906;-61
2023/12/02 05:57:44;;;;;;;63.50;35.20;;;;;;;4.18;84.78;98409.73;109515;1253;73348;-61
2023/12/02 06:00:13;;;;;;;60.60;33.80;;;;;;;4.22;84.73;98406.21;109507;1252;66386;-61
2023/12/02 06:02:40;;;;;;;;;;;;;;;4.15;84.79;98403.56;109584;1252;72744;-63
2023/12/02 06:05:08;;;;;;;60.20;34.00;;;;;;;4.24;84.55;98413.39;109556;1253;60806;-60
2023/12/02 06:07:35;;;;;;;70.50;38.30;;;;;;;4.34;84.17;98418.33;109515;1255;60006;-64
2023/12/02 06:10:03;;;;;;;77.30;39.70;;;;;;;4.37;83.92;98421.18;109639;1253;74580;-62
2023/12/02 06:12:31;;;;;;;79.10;43.20;;;;;;;4.43;83.79;98425.54;109550;1253;68367;-61
2023/12/02 06:14:58;;;;;;;86.60;46.00;;;;;;;4.38;83.68;98418.23;109519;1252;72438;-61
2023/12/02 06:17:26;;;;;;;91.80;46.50;;;;;;;4.39;83.63;98416.92;109567;1254;59948;-61
2023/12/02 06:19:54;;;;;;;80.50;46.00;;;;;;;4.43;83.45;98416.98;109571;1252;60009;-64
2023/12/02 06:22:21;;;;;;;97.40;44.70;;;;;;;4.53;83.19;98419.00;109479;1252;74569;-64
2023/12/02 06:24:49;;;;;;;90.30;46.80;;;;;;;4.56;83.05;98420.20;109503;1252;68421;-60
2023/12/02 06:27:16;;;;;;;73.50;44.40;;;;;;;4.47;83.39;98424.33;109332;1251;72441;-61
2023/12/02 06:29:44;;;;;;;76.20;42.20;;;;;;;4.52;83.54;98424.24;109559;1253;60855;-62
2023/12/02 06:32:12;;;;;;;72.60;39.10;;;;;;;4.58;83.55;98427.06;109503;1252;59107;-63
2023/12/02 06:34:40;;;;;;;72.70;38.40;;;;;;;4.47;83.96;98422.58;109560;1252;74675;-64
2023/12/02 06:37:07;;;;;;;78.60;42.10;;;;;;;4.54;83.71;98424.27;109514;1253;67475;-61
2023/12/02 06:39:35;;;;;;;138.90;61.80;;;;;;;4.61;83.27;98423.55;109539;1253;72649;-62
2023/12/02 06:42:03;;;;;;;97.80;49.80;;;;;;;4.76;82.82;98422.54;109408;1253;59665;-61
2023/12/02 06:44:30;;;;;;;90.80;48.70;;;;;;;4.78;82.56;98420.60;109547;1253;59391;-62
2023/12/02 06:46:58;;;;;;;84.00;46.20;;;;;;;4.77;83.00;98422.45;109498;1252;73372;-62
2023/12/02 06:49:25;;;;;;;90.20;45.70;;;;;;;4.81;83.23;98421.74;109410;1254;68373;-65
2023/12/02 06:51:53;;;;;;;86.30;42.00;;;;;;;4.76;82.96;98424.45;109391;1253;71444;-61
2023/12/02 06:54:20;;;;;;;84.60;42.60;;;;;;;4.80;83.00;98424.25;109209;1253;60826;-66
2023/12/02 06:56:48;;;;;;;78.10;42.30;;;;;;;4.87;82.52;98417.96;109426;1253;59936;-63
2023/12/02 06:59:16;;;;;;;83.20;42.00;;;;;;;4.88;82.12;98419.42;109468;1253;74605;-61
2023/12/02 07:01:44;;;;;;;76.30;40.80;;;;;;;4.96;82.53;98420.38;109447;1252;68383;-62
2023/12/02 07:04:12;;;;;;;83.20;47.10;;;;;;;5.08;81.86;98425.60;109448;1253;72416;-61
2023/12/02 07:06:40;;;;;;;66.60;40.10;;;;;;;5.24;81.21;98421.88;109409;1252;59648;-61
2023/12/02 07:09:08;;;;;;;57.60;36.60;;;;;;;5.24;81.17;98420.82;109466;1253;59967;-64
2023/12/02 07:11:35;;;;;;;60.40;36.80;;;;;;;5.16;81.38;98427.95;109430;1254;73347;-64
2023/12/02 07:14:03;;;;;;;55.70;32.10;;;;;;;5.12;81.78;98429.16;109452;1253;68391;-64
2023/12/02 07:16:31;;;;;;;50.40;30.30;;;;;;;5.21;81.30;98426.25;109412;1253;72665;-64
2023/12/02 07:18:58;;;;;;;54.20;33.70;;;;;;;5.38;81.40;98429.18;109207;1253;60825;-64
2023/12/02 07:21:29;;;;;;;58.20;34.60;;;;;;;5.51;80.79;98419.97;109473;1253;59285;-62
2023/12/02 07:23:57;;;;;;;50.50;32.40;;;;;;;5.57;79.71;98423.92;109497;1252;74654;-61
2023/12/02 07:26:24;;;;;;;52.60;33.60;;;;;;;5.54;79.45;98426.71;109408;1254;68387;-61
2023/12/02 07:28:52;;;;;;;57.50;33.90;;;;;;;5.68;78.98;98419.16;109440;1253;71429;-61
2023/12/02 07:31:19;;;;;;;53.60;32.80;;;;;;;5.70;78.50;98416.18;109405;1254;59581;-61
2023/12/02 07:33:47;;;;;;;48.50;30.20;;;;;;;5.52;79.12;98406.61;109491;1253;59485;-61
2023/12/02 07:36:14;;;;;;;54.60;31.00;;;;;;;5.57;79.44;98401.56;109268;1254;74671;-63
2023/12/02 07:38:42;;;;;;;44.20;27.70;;;;;;;5.40;79.38;98388.12;109433;1253;68338;-64
2023/12/02 07:41:10;;;;;;;64.60;36.20;;;;;;;5.35;80.14;98385.27;109401;1253;71397;-64
2023/12/02 07:43:37;;;;;;;71.20;40.00;;;;;;;5.43;79.86;98379.21;109210;1253;60119;-65
2023/12/02 07:46:06;;;;;;;65.30;35.70;;;;;;;5.45;79.95;98382.31;109576;1252;60013;-66
2023/12/02 07:48:33;;;;;;;63.60;37.40;;;;;;;5.46;79.73;98391.33;109092;1252;73336;-65
2023/12/02 07:51:07;;;;;;;52.80;31.40;;;;;;;5.57;79.67;98400.60;109593;1251;68417;-66
2023/12/02 07:53:35;;;;;;;93.90;40.60;;;;;;;5.52;79.54;98402.54;109522;1251;72625;-65
2023/12/02 07:56:03;;;;;;;60.00;31.40;;;;;;;5.42;79.78;98395.59;109604;1251;59643;-67
2023/12/02 07:58:31;;;;;;;;;;;;;;;5.47;79.89;98394.91;109557;1251;60113;-67
2023/12/02 08:00:59;;;;;;;111.00;58.80;;;;;;;5.56;79.51;98390.36;109244;1251;73458;-68
2023/12/02 08:03:27;;;;;;;127.70;58.40;;;;;;;5.42;79.80;98388.92;109584;1251;68658;-69
2023/12/02 08:05:55;;;;;;;127.80;50.10;;;;;;;5.40;80.02;98390.83;109532;1251;72655;-69
2023/12/02 08:08:22;;;;;;;81.70;41.40;;;;;;;5.52;79.75;98400.83;109614;1251;60845;-70
2023/12/02 08:10:50;;;;;;;59.20;32.90;;;;;;;5.59;79.54;98402.44;109562;1252;58918;-69
2023/12/02 08:13:17;;;;;;;67.60;34.70;;;;;;;5.45;79.67;98400.80;109587;1251;73602;-69
2023/12/02 08:15:45;;;;;;;85.20;40.00;;;;;;;5.56;79.68;98410.55;109524;1251;68676;-70
2023/12/02 08:18:13;;;;;;;69.70;35.90;;;;;;;5.66;79.29;98417.63;109537;1251;72677;-70
2023/12/02 08:20:40;;;;;;;84.40;43.60;;;;;;;5.47;80.12;98419.98;109559;1251;61023;-70
2023/12/02 08:23:08;;;;;;;60.20;34.40;;;;;;;5.54;79.89;98416.55;109622;1251;60045;-69
2023/12/02 08:25:35;;;;;;;98.60;49.40;;;;;;;5.53;80.00;98419.36;109627;1251;73353;-69
2023/12/02 08:28:03;;;;;;;94.70;43.60;;;;;;;5.57;80.08;98423.06;109574;1251;67249;-69
2023/12/02 08:30:30;;;;;;;71.40;39.40;;;;;;;5.76;79.29;98431.02;109233;1251;72717;-70
2023/12/02 08:32:58;;;;;;;99.60;44.90;;;;;;;5.71;78.99;98439.74;109537;1256;59610;-69
2023/12/02 08:35:25;;;;;;;123.80;50.50;;;;;;;5.66;79.21;98443.20;109580;1251;59994;-69
2023/12/02 08:37:53;;;;;;;193.10;89.30;;;;;;;5.50;79.90;98439.86;109676;1251;74684;-69
2023/12/02 08:40:20;;;;;;;100.60;49.80;;;;;;;5.45;80.53;98430.81;109652;1251;68470;-69
2023/12/02 08:42:48;;;;;;;104.90;43.50;;;;;;;5.50;80.69;98425.96;109538;1251;74798;-69
2023/12/02 08:45:16;;;;;;;91.00;39.60;;;;;;;5.48;80.99;98424.57;109537;1251;59664;-67
2023/12/02 08:47:43;;;;;;;73.60;38.50;;;;;;;5.44;81.16;98424.67;109544;1251;60014;-69
2023/12/02 08:50:11;;;;;;;65.00;37.80;;;;;;;5.46;81.08;98419.69;109426;1251;73332;-69
2023/12/02 08:52:39;;;;;;;76.70;40.50;;;;;;;5.40;81.67;98409.05;109436;1254;67262;-70
2023/12/02 08:55:06;;;;;;;81.30;41.70;;;;;;;5.24;82.70;98404.63;109558;1251;71342;-69
2023/12/02 08:57:36;;;;;;;84.40;41.70;;;;;;;5.29;82.83;98405.82;109585;1251;61096;-69
2023/12/02 09:00:05;;;;;;;71.20;38.00;;;;;;;5.37;82.59;98393.35;109374;1251;59998;-69
2023/12/02 09:02:32;;;;;;;74.10;36.30;;;;;;;5.50;81.83;98386.31;109589;1251;74737;-69
2023/12/02 09:05:02;;;;;;;65.80;32.20;;;;;;;5.44;81.81;98391.68;109537;1251;67431;-68
2023/12/02 09:07:30;;;;;;;69.90;35.40;;;;;;;5.43;81.96;98403.05;109524;1252;72656;-69
2023/12/02 09:09:57;;;;;;;69.90;33.70;;;;;;;5.61;81.34;98409.65;109574;1251;60900;-67
2023/12/02 09:12:25;;;;;;;70.30;31.00;;;;;;;5.61;81.17;98408.00;109232;1251;59482;-67
2023/12/02 09:15:14;;;;;;;59.80;29.30;;;;;;;5.56;81.04;98401.55;109505;1251;74715;-67
2023/12/02 09:17:48;;;;;;;63.10;29.20;;;;;;;5.28;82.68;98402.77;109495;1251;68683;-68
2023/12/02 09:20:30;;;;;;;78.50;38.40;;;;;;;5.36;82.37;98393.97;109591;1251;72785;-67
2023/12/02 09:23:00;;;;;;;75.20;33.60;;;;;;;5.34;82.53;98392.93;109528;1251;60882;-69
2023/12/02 09:25:34;;;;;;;67.00;35.30;;;;;;;5.05;84.34;98368.38;109652;1251;60025;-65
2023/12/02 09:28:09;;;;;;;109.10;45.50;;;;;;;5.26;83.82;98378.91;109311;1251;74465;-68
2023/12/02 09:30:39;;;;;;;82.20;37.80;;;;;;;5.34;83.19;98388.95;109442;1251;68360;-67
2023/12/02 09:33:07;;;;;;;102.50;45.70;;;;;;;5.47;82.38;98375.85;109557;1250;72328;-66
2023/12/02 09:35:35;;;;;;;86.70;41.60;;;;;;;5.55;82.09;98377.16;109573;1252;59066;-65
2023/12/02 09:38:03;;;;;;;143.40;64.60;;;;;;;5.54;81.98;98381.20;109649;1253;59037;-68
2023/12/02 09:40:52;;;;;;;64.70;34.40;;;;;;;5.47;82.05;98397.02;109588;1252;73460;-69
2023/12/02 09:43:33;;;;;;;109.10;46.60;;;;;;;5.34;83.08;98388.04;109531;1251;66133;-69
2023/12/02 09:46:32;;;;;;;135.20;65.90;;;;;;;5.39;82.94;98392.20;109532;1251;71145;-69
2023/12/02 09:49:21;;;;;;;120.20;58.00;;;;;;;5.53;82.47;98402.01;109540;1252;60809;-69
2023/12/02 09:52:00;;;;;;;153.40;52.40;;;;;;;5.61;81.83;98393.41;109229;1251;58878;-68
2023/12/02 09:54:30;;;;;;;185.20;59.80;;;;;;;5.62;81.43;98380.33;109567;1251;74628;-69
2023/12/02 09:57:08;;;;;;;90.80;37.30;;;;;;;5.39;82.06;98359.15;109534;1251;68366;-68
2023/12/02 09:59:35;;;;;;;91.80;33.80;;;;;;;5.24;83.34;98355.20;109321;1251;164453;-69
2023/12/02 10:02:04;;;;;;;103.70;42.30;;;;;;;5.30;83.37;98351.77;109650;1253;59639;-68
2023/12/02 10:04:44;;;;;;;93.30;43.10;;;;;;;5.39;82.82;98366.23;109575;1251;60082;-69
2023/12/02 10:08:00;;;;;;;66.40;31.10;;;;;;;5.41;82.98;98357.84;109523;1251;74697;-69
2023/12/02 10:10:53;;;;;;;74.20;34.10;;;;;;;5.42;82.43;98352.69;109022;1258;68804;-69
2023/12/02 10:13:23;;;;;;;73.30;32.20;;;;;;;5.51;82.35;98368.93;109030;1259;71429;-69
2023/12/02 10:15:54;;;;;;;53.00;28.90;;;;;;;5.49;82.61;98375.48;109038;1258;59905;-70
2023/12/02 10:18:22;;;;;;;46.90;25.40;;;;;;;5.51;82.14;98370.84;108961;1259;62391;-70
2023/12/02 10:20:55;;;;;;;51.40;28.30;;;;;;;5.62;82.00;98378.88;108881;1257;74602;-70
2023/12/02 10:23:31;;;;;;;57.70;31.40;;;;;;;5.63;81.55;98353.45;108992;1259;67491;-70
2023/12/02 10:26:08;;;;;;;49.60;27.50;;;;;;;5.53;82.55;98342.02;108969;1258;74987;-70
2023/12/02 10:28:44;;;;;;;61.60;32.30;;;;;;;5.60;82.24;98325.74;109014;1259;59598;-71
2023/12/02 10:31:33;;;;;;;56.90;26.20;;;;;;;5.44;82.82;98327.96;108970;1258;58895;-71
2023/12/02 10:34:04;;;;;;;50.90;26.30;;;;;;;5.38;83.21;98340.40;108978;1257;74650;-71
2023/12/02 10:36:33;;;;;;;46.50;26.20;;;;;;;5.34;83.77;98337.48;109024;1257;67414;-71
2023/12/02 10:39:15;;;;;;;57.10;28.40;;;;;;;5.41;83.61;98325.38;108980;1258;72726;-71
2023/12/02 10:41:47;;;;;;;62.30;31.10;;;;;;;5.38;83.67;98332.20;108901;1259;59984;-71
2023/12/02 10:44:18;;;;;;;67.70;34.50;;;;;;;5.35;83.80;98331.91;108931;1257;60029;-70
2023/12/02 10:46:46;;;;;;;65.00;32.50;;;;;;;5.40;83.80;98335.64;109395;1250;73302;-70
2023/12/02 10:49:13;;;;;;;65.30;34.30;;;;;;;5.43;83.79;98333.11;109256;1251;68657;-70
2023/12/02 10:51:42;;;;;;;66.10;33.00;;;;;;;5.26;84.29;98319.73;109538;1251;72488;-71
2023/12/02 10:54:15;;;;;;;122.00;52.90;;;;;;;5.31;84.43;98324.84;109254;1253;61005;-70
2023/12/02 10:56:45;;;;;;;98.40;45.60;;;;;;;5.50;83.60;98316.17;109474;1251;59167;-70
2023/12/02 10:59:13;;;;;;;109.80;48.30;;;;;;;5.41;83.65;98315.74;109446;1251;73357;-71
2023/12/02 11:01:45;;;;;;;68.20;38.50;;;;;;;5.55;83.16;98326.53;109549;1251;67321;-71
2023/12/02 11:04:33;;;;;;;80.40;42.10;;;;;;;5.45;83.43;98339.73;109359;1251;72795;-71
2023/12/02 11:07:01;;;;;;;118.40;55.90;;;;;;;5.64;82.92;98344.30;109451;1251;59598;-72
2023/12/02 11:09:52;;;;;;;107.70;52.30;;;;;;;5.52;82.83;98333.69;109577;1251;60005;-72
2023/12/02 11:12:52;;;;;;;76.20;41.70;;;;;;;5.44;83.12;98322.17;109585;1251;74633;-72
2023/12/02 11:15:23;;;;;;;77.30;39.20;;;;;;;5.39;83.62;98315.46;109137;1257;68698;-72
2023/12/02 11:18:04;;;;;;;59.50;34.00;;;;;;;5.45;83.49;98317.02;109151;1257;71454;-72
2023/12/02 11:21:04;;;;;;;56.50;31.50;;;;;;;5.48;83.84;98309.02;109152;1257;60902;-73
2023/12/02 11:23:47;;;;;;;50.00;28.70;;;;;;;5.46;83.65;98296.36;108807;1262;60010;-73
2023/12/02 11:26:14;;;;;;;57.70;27.10;;;;;;;5.44;83.21;98292.45;108906;1262;74613;-73